Time;durP1;ratioP1;P1;durP2;ratioP2;P2;SDS_P1;SDS_P2;PMS_P1;PMS_P2;Temp;Humidity;BMP_temperature;BMP_pressure;BME280_temperature;BME280_humidity;BME280_pressure;Samples;Min_cycle;Max_cycle;Signal;HPM_P1;HPM_P2
2022/06/15 00:01:32;;;;;;;;;;;20.10;75.50;;;;;;5090554;28;19974;-82
2022/06/15 00:04:03;;;;;;;;;;;20.10;75.40;;;;;;5086485;28;19930;-82
2022/06/15 00:06:32;;;;;;;;;;;20.10;75.40;;;;;;5088623;28;19930;-82
2022/06/15 00:09:00;;;;;;;;;;;20.00;75.20;;;;;;5086340;28;19928;-82
2022/06/15 00:11:28;;;;;;;;;;;20.00;75.10;;;;;;5088414;28;19954;-82
2022/06/15 00:13:57;;;;;;;;;;;20.00;75.10;;;;;;5091808;28;20142;-82
2022/06/15 00:16:24;;;;;;;;;;;19.90;75.70;;;;;;5074732;28;19924;-81
2022/06/15 00:18:52;;;;;;;;;;;19.90;75.10;;;;;;5093618;28;19981;-81
2022/06/15 00:21:20;;;;;;;;;;;19.90;75.10;;;;;;5090426;28;19935;-82
2022/06/15 00:23:47;;;;;;;;;;;19.80;75.10;;;;;;5090764;28;19955;-82
2022/06/15 00:26:15;;;;;;;;;;;19.80;75.10;;;;;;5092064;28;19925;-82
2022/06/15 00:28:42;;;;;;;;;;;19.80;75.20;;;;;;5074448;28;19925;-81
2022/06/15 00:31:09;;;;;;;;;;;19.80;75.30;;;;;;5097512;28;19924;-82
2022/06/15 00:33:36;;;;;;;;;;;19.70;75.20;;;;;;5084474;28;19924;-81
2022/06/15 00:36:05;;;;;;;;;;;19.70;75.40;;;;;;5074607;28;19932;-81
2022/06/15 00:38:34;;;;;;;;;;;19.70;75.50;;;;;;5079705;28;19924;-81
2022/06/15 00:41:01;;;;;;;;;;;19.70;75.60;;;;;;5074474;28;20433;-82
2022/06/15 00:43:35;;;;;;;;;;;19.70;75.70;;;;;;5092817;28;20003;-81
2022/06/15 00:46:05;;;;;;;;;;;19.60;75.70;;;;;;5096499;28;19935;-82
2022/06/15 00:48:32;;;;;;;;;;;19.60;75.80;;;;;;5075103;28;19962;-81
2022/06/15 00:50:59;;;;;;;;;;;19.60;76.50;;;;;;5092243;28;19932;-83
2022/06/15 00:53:26;;;;;;;;;;;19.60;75.90;;;;;;5096028;28;20004;-82
2022/06/15 00:55:55;;;;;;;;;;;19.50;75.90;;;;;;5096917;28;19928;-82
2022/06/15 00:58:22;;;;;;;;;;;19.50;75.90;;;;;;5075156;28;20030;-81
2022/06/15 01:00:53;;;;;;;;;;;19.50;76.00;;;;;;5074471;28;19954;-82
2022/06/15 01:03:20;;;;;;;;;;;19.40;76.00;;;;;;5095514;28;19953;-81
2022/06/15 01:05:52;;;;;;;;;;;19.40;76.60;;;;;;5080326;28;20382;-82
2022/06/15 01:08:25;;;;;;;;;;;19.40;76.10;;;;;;5074088;28;19928;-83
2022/06/15 01:11:10;;;;;;;;;;;19.40;76.20;;;;;;5077192;28;19943;-81
2022/06/15 01:13:44;;;;;;;;;;;19.40;76.20;;;;;;5075909;28;19924;-82
2022/06/15 01:16:15;;;;;;;;;;;19.30;76.20;;;;;;5098372;28;19924;-82
2022/06/15 01:18:49;;;;;;;;;;;19.30;76.20;;;;;;5093342;28;19986;-84
2022/06/15 01:21:20;;;;;;;;;;;19.20;76.20;;;;;;5094485;28;19958;-82
2022/06/15 01:23:58;;;;;;;;;;;19.20;76.20;;;;;;5074520;28;19989;-83
2022/06/15 01:26:38;;;;;;;;;;;19.20;76.30;;;;;;5074667;28;19935;-82
2022/06/15 01:29:12;;;;;;;;;;;19.20;76.30;;;;;;5077045;28;19939;-82
2022/06/15 01:31:44;;;;;;;;;;;19.10;76.20;;;;;;5075374;28;19924;-83
2022/06/15 01:34:14;;;;;;;;;;;19.10;76.30;;;;;;5072369;28;20004;-82
2022/06/15 01:36:47;;;;;;;;;;;19.10;76.30;;;;;;5073823;28;19981;-82
2022/06/15 01:39:18;;;;;;;;;;;19.00;76.30;;;;;;5092262;28;19930;-81
2022/06/15 01:41:49;;;;;;;;;;;19.00;76.30;;;;;;5070332;28;19923;-82
2022/06/15 01:44:19;;;;;;;;;;;19.00;76.30;;;;;;5076901;28;19932;-83
2022/06/15 01:46:48;;;;;;;;;;;19.00;76.40;;;;;;5077215;28;19940;-82
2022/06/15 01:49:18;;;;;;;;;;;18.90;76.30;;;;;;5091008;28;19928;-82
2022/06/15 01:51:48;;;;;;;;;;;18.90;76.30;;;;;;5068179;28;20436;-81
2022/06/15 01:54:19;;;;;;;;;;;18.90;76.30;;;;;;5096790;28;19925;-82
2022/06/15 01:56:48;;;;;;;;;;;18.80;76.30;;;;;;5078241;28;19924;-82
2022/06/15 01:59:21;;;;;;;;;;;18.80;76.30;;;;;;5075935;28;19963;-83
2022/06/15 02:01:53;;;;;;;;;;;18.80;76.40;;;;;;5075264;28;19993;-81
2022/06/15 02:04:26;;;;;;;;;;;18.70;76.40;;;;;;5073572;28;20555;-82
2022/06/15 02:07:00;;;;;;;;;;;18.70;76.40;;;;;;5092701;28;20048;-82
2022/06/15 02:09:30;;;;;;;;;;;18.70;76.50;;;;;;5088233;28;19931;-82
2022/06/15 02:11:59;;;;;;;;;;;18.70;76.60;;;;;;5093788;28;19946;-82
2022/06/15 02:14:28;;;;;;;;;;;18.60;76.50;;;;;;5076107;28;20440;-82
2022/06/15 02:16:57;;;;;;;;;;;18.60;76.50;;;;;;5072859;28;19946;-82
2022/06/15 02:19:32;;;;;;;;;;;18.60;76.60;;;;;;5066357;28;20087;-82
2022/06/15 02:22:03;;;;;;;;;;;18.60;76.60;;;;;;5092516;28;19928;-82
2022/06/15 02:24:39;;;;;;;;;;;18.60;76.70;;;;;;5076943;28;19931;-82
2022/06/15 02:27:06;;;;;;;;;;;18.50;76.70;;;;;;5075157;28;19955;-82
2022/06/15 02:29:36;;;;;;;;;;;18.50;76.70;;;;;;5074099;28;19932;-82
2022/06/15 02:32:08;;;;;;;;;;;18.50;76.80;;;;;;5074646;28;19924;-82
2022/06/15 02:34:35;;;;;;;;;;;18.40;76.80;;;;;;5071180;28;19958;-81
2022/06/15 02:37:03;;;;;;;;;;;18.40;99.90;;;;;;5072788;28;19999;-82
2022/06/15 02:39:31;;;;;;;;;;;18.40;76.90;;;;;;5073715;28;19934;-82
2022/06/15 02:42:00;;;;;;;;;;;18.30;76.90;;;;;;5061209;28;19976;-81
2022/06/15 02:44:30;;;;;;;;;;;17.90;95.60;;;;;;5075055;28;20055;-82
2022/06/15 02:46:59;;;;;;;;;;;18.30;76.90;;;;;;5074030;28;20382;-81
2022/06/15 02:49:28;;;;;;;;;;;18.30;77.00;;;;;;5070979;28;19954;-82
2022/06/15 02:51:58;;;;;;;;;;;18.20;76.90;;;;;;5067427;28;19924;-81
2022/06/15 02:54:26;;;;;;;;;;;18.20;92.50;;;;;;5085015;28;19959;-82
2022/06/15 02:56:58;;;;;;;;;;;18.30;93.70;;;;;;5070266;28;20003;-83
2022/06/15 02:59:27;;;;;;;;;;;18.20;77.10;;;;;;5088727;28;19978;-81
2022/06/15 03:01:56;;;;;;;;;;;18.10;77.00;;;;;;5073310;28;19989;-82
2022/06/15 03:04:23;;;;;;;;;;;18.20;77.20;;;;;;5068197;28;19924;-82
2022/06/15 03:06:52;;;;;;;;;;;18.10;94.20;;;;;;5078093;28;19981;-83
2022/06/15 03:09:19;;;;;;;;;;;18.00;79.70;;;;;;5078098;28;19924;-81
2022/06/15 03:11:49;;;;;;;;;;;18.00;77.10;;;;;;5093404;28;19928;-82
2022/06/15 03:14:23;;;;;;;;;;;18.00;77.20;;;;;;5072072;28;19985;-82
2022/06/15 03:16:54;;;;;;;;;;;18.00;77.20;;;;;;5071848;28;19978;-82
2022/06/15 03:19:23;;;;;;;;;;;18.00;77.20;;;;;;5089051;28;19928;-81
2022/06/15 03:21:59;;;;;;;;;;;17.90;77.10;;;;;;5067474;28;19928;-81
2022/06/15 03:24:26;;;;;;;;;;;17.90;77.10;;;;;;5072345;28;20286;-82
2022/06/15 03:26:54;;;;;;;;;;;17.90;77.20;;;;;;5070140;28;19924;-81
2022/06/15 03:29:25;;;;;;;;;;;17.80;77.00;;;;;;5077017;28;19924;-81
2022/06/15 03:31:55;;;;;;;;;;;17.80;77.10;;;;;;5064031;28;20318;-82
2022/06/15 03:34:28;;;;;;;;;;;17.80;77.10;;;;;;5070189;28;19932;-83
2022/06/15 03:36:55;;;;;;;;;;;17.80;77.10;;;;;;5092585;28;19924;-82
2022/06/15 03:39:24;;;;;;;;;;;17.70;77.10;;;;;;5075526;28;19928;-81
2022/06/15 03:41:55;;;;;;;;;;;17.70;77.30;;;;;;5068150;28;19924;-81
2022/06/15 03:44:22;;;;;;;;;;;17.70;77.30;;;;;;5071289;28;19936;-82
2022/06/15 03:46:48;;;;;;;;;;;17.70;77.40;;;;;;5072769;28;20018;-81
2022/06/15 03:49:24;;;;;;;;;;;17.60;77.30;;;;;;5076724;28;19925;-81
2022/06/15 03:51:52;;;;;;;;;;;17.60;77.30;;;;;;5074365;28;20334;-82
2022/06/15 03:54:22;;;;;;;;;;;17.60;77.30;;;;;;5076716;28;19924;-82
2022/06/15 03:56:51;;;;;;;;;;;17.50;77.30;;;;;;5077165;28;19928;-81
2022/06/15 03:59:26;;;;;;;;;;;17.60;77.40;;;;;;5092260;28;19928;-82
2022/06/15 04:01:57;;;;;;;;;;;17.50;77.50;;;;;;5077346;28;19924;-81
2022/06/15 04:04:24;;;;;;;;;;;17.50;77.60;;;;;;5073874;28;19924;-82
2022/06/15 04:06:52;;;;;;;;;;;17.40;77.40;;;;;;5097021;28;19981;-81
2022/06/15 04:09:23;;;;;;;;;;;17.40;77.50;;;;;;5093908;28;19932;-82
2022/06/15 04:12:08;;;;;;;;;;;17.40;77.60;;;;;;5073898;28;19948;-82
2022/06/15 04:14:38;;;;;;;;;;;17.40;77.40;;;;;;5092251;28;20437;-81
2022/06/15 04:17:13;;;;;;;;;;;17.40;77.60;;;;;;5076049;28;19931;-82
2022/06/15 04:23:01;;;;;;;;;;;17.30;77.70;;;;;;5089475;28;19924;-82
2022/06/15 04:25:29;;;;;;;;;;;17.30;77.70;;;;;;5075294;28;19928;-83
2022/06/15 04:27:58;;;;;;;;;;;17.20;77.90;;;;;;5071510;28;20386;-81
2022/06/15 04:30:26;;;;;;;;;;;17.20;77.90;;;;;;5079065;28;20321;-81
2022/06/15 04:32:55;;;;;;;;;;;17.20;77.80;;;;;;5054896;28;20984;-81
2022/06/15 04:35:30;;;;;;;;;;;17.20;77.70;;;;;;5072882;28;19924;-83
2022/06/15 04:37:59;;;;;;;;;;;17.10;77.50;;;;;;5072341;28;20022;-81
2022/06/15 04:40:32;;;;;;;;;;;17.10;77.70;;;;;;5091560;28;20330;-80
2022/06/15 04:43:01;;;;;;;;;;;17.10;77.50;;;;;;5075993;28;19930;-82
2022/06/15 04:45:28;;;;;;;;;;;17.10;77.40;;;;;;5066693;28;19924;-81
2022/06/15 04:48:03;;;;;;;;;;;17.00;77.30;;;;;;5074155;28;19968;-81
2022/06/15 04:50:30;;;;;;;;;;;17.00;77.20;;;;;;5073189;28;19932;-81
2022/06/15 04:52:58;;;;;;;;;;;17.00;77.20;;;;;;5075208;28;19931;-81
2022/06/15 04:55:26;;;;;;;;;;;17.00;77.20;;;;;;5071127;28;19936;-81
2022/06/15 04:57:59;;;;;;;;;;;16.90;77.80;;;;;;5072020;28;19925;-81
2022/06/15 05:00:30;;;;;;;;;;;16.70;78.60;;;;;;5071541;28;19928;-81
2022/06/15 05:02:58;;;;;;;;;;;16.60;79.10;;;;;;5089930;28;20015;-82
2022/06/15 05:05:25;;;;;;;;;;;16.50;79.50;;;;;;5076183;28;19931;-82
2022/06/15 05:07:53;;;;;;;;;;;16.50;79.60;;;;;;5066350;28;19932;-81
2022/06/15 05:10:21;;;;;;;;;;;16.50;79.90;;;;;;5073883;28;19924;-82
2022/06/15 05:12:52;;;;;;;;;;;16.40;80.00;;;;;;5089584;28;20452;-82
2022/06/15 05:15:21;;;;;;;;;;;16.50;80.10;;;;;;5068172;28;20650;-82
2022/06/15 05:17:53;;;;;;;;;;;16.50;80.30;;;;;;5069599;28;19925;-82
2022/06/15 05:20:21;;;;;;;;;;;16.50;80.40;;;;;;5093144;28;19924;-82
2022/06/15 05:22:55;;;;;;;;;;;16.50;80.40;;;;;;5070208;28;19928;-81
2022/06/15 05:25:38;;;;;;;;;;;16.50;80.30;;;;;;5073996;28;19955;-82
2022/06/15 05:28:06;;;;;;;;;;;16.50;80.20;;;;;;5074202;28;19924;-83
2022/06/15 05:30:38;;;;;;;;;;;16.50;80.20;;;;;;5093422;28;19928;-83
2022/06/15 05:33:06;;;;;;;;;;;16.50;80.50;;;;;;5102574;28;19946;-81
2022/06/15 05:35:39;;;;;;;;;;;16.50;80.70;;;;;;5096022;28;19924;-82
2022/06/15 05:38:06;;;;;;;;;;;16.50;80.80;;;;;;5076505;28;19923;-81
2022/06/15 05:40:36;;;;;;;;;;;16.50;80.80;;;;;;5075804;28;19956;-82
2022/06/15 05:43:03;;;;;;;;;;;16.60;80.90;;;;;;5075463;28;19967;-82
2022/06/15 05:45:32;;;;;;;;;;;16.60;80.90;;;;;;5069114;28;19924;-83
2022/06/15 05:48:02;;;;;;;;;;;16.60;81.00;;;;;;5068061;28;19924;-83
2022/06/15 05:50:42;;;;;;;;;;;16.60;81.00;;;;;;5078604;28;19924;-82
2022/06/15 05:53:20;;;;;;;;;;;16.60;80.90;;;;;;5089606;28;20474;-83
2022/06/15 05:55:49;;;;;;;;;;;16.60;81.00;;;;;;5063043;28;19960;-82
2022/06/15 05:58:16;;;;;;;;;;;16.70;81.20;;;;;;5047706;28;19974;-81
2022/06/15 06:00:43;;;;;;;;;;;16.70;81.20;;;;;;5081106;28;19932;-82
2022/06/15 06:03:10;;;;;;;;;;;16.70;81.00;;;;;;5064844;28;20484;-81
2022/06/15 06:05:37;;;;;;;;;;;16.70;81.10;;;;;;5086587;28;19938;-81
2022/06/15 06:08:07;;;;;;;;;;;16.80;82.10;;;;;;5070512;28;20398;-81
2022/06/15 06:10:34;;;;;;;;;;;16.80;81.50;;;;;;5081429;28;20346;-81
2022/06/15 06:13:04;;;;;;;;;;;16.80;81.50;;;;;;5066498;28;19936;-82
2022/06/15 06:15:31;;;;;;;;;;;16.90;81.60;;;;;;5081908;28;20868;-82
2022/06/15 06:18:01;;;;;;;;;;;16.80;81.50;;;;;;5087567;28;19924;-82
2022/06/15 06:20:28;;;;;;;;;;;16.90;81.70;;;;;;5082186;28;20713;-82
2022/06/15 06:22:55;;;;;;;;;;;16.90;81.80;;;;;;5079951;28;20471;-83
2022/06/15 06:25:23;;;;;;;;;;;16.90;81.90;;;;;;5091487;28;19924;-82
2022/06/15 06:27:50;;;;;;;;;;;16.90;81.70;;;;;;5089017;28;19928;-82
2022/06/15 06:30:21;;;;;;;;;;;16.90;81.80;;;;;;5087242;28;19973;-81
2022/06/15 06:32:48;;;;;;;;;;;17.00;82.00;;;;;;5067179;28;19934;-82
2022/06/15 06:35:15;;;;;;;;;;;17.00;82.00;;;;;;5089236;28;19924;-82
2022/06/15 06:37:43;;;;;;;;;;;17.00;82.00;;;;;;5088126;28;20366;-82
2022/06/15 06:40:11;;;;;;;;;;;16.90;82.10;;;;;;5085862;28;19985;-82
2022/06/15 06:42:39;;;;;;;;;;;17.00;82.40;;;;;;5064549;28;19924;-82
2022/06/15 06:45:09;;;;;;;;;;;17.00;82.50;;;;;;5092254;28;19931;-82
2022/06/15 06:47:36;;;;;;;;;;;17.00;82.30;;;;;;5088263;28;20386;-82
2022/06/15 06:50:03;;;;;;;;;;;17.00;82.40;;;;;;5087641;28;19981;-82
2022/06/15 06:52:30;;;;;;;;;;;17.10;82.70;;;;;;5087988;28;19924;-83
2022/06/15 06:54:57;;;;;;;;;;;17.10;82.90;;;;;;5092615;28;19924;-82
2022/06/15 06:57:26;;;;;;;;;;;17.10;83.60;;;;;;5088601;28;21792;-83
2022/06/15 06:59:54;;;;;;;;;;;17.20;83.10;;;;;;5079952;28;20321;-82
2022/06/15 07:02:21;;;;;;;;;;;17.20;83.20;;;;;;5080228;28;19928;-82
2022/06/15 07:04:50;;;;;;;;;;;17.20;83.40;;;;;;5086487;28;19935;-82
2022/06/15 07:07:17;;;;;;;;;;;17.20;83.40;;;;;;5084728;28;19947;-82
2022/06/15 07:09:45;;;;;;;;;;;17.30;83.60;;;;;;5068074;28;19932;-83
2022/06/15 07:12:12;;;;;;;;;;;17.30;83.60;;;;;;5072998;28;19977;-82
2022/06/15 07:14:39;;;;;;;;;;;17.30;83.60;;;;;;5087297;28;20288;-84
2022/06/15 07:17:07;;;;;;;;;;;17.40;83.70;;;;;;5082981;28;20391;-82
2022/06/15 07:19:34;;;;;;;;;;;17.40;83.80;;;;;;5084361;28;19931;-83
2022/06/15 07:22:01;;;;;;;;;;;17.40;83.80;;;;;;5086082;28;20413;-82
2022/06/15 07:24:28;;;;;;;;;;;17.40;83.70;;;;;;5084926;28;19936;-84
2022/06/15 07:26:55;;;;;;;;;;;17.40;83.80;;;;;;5084308;28;20595;-83
2022/06/15 07:29:22;;;;;;;;;;;17.50;84.00;;;;;;5088548;28;19931;-82
2022/06/15 07:31:52;;;;;;;;;;;17.50;84.20;;;;;;5083635;28;19936;-83
2022/06/15 07:34:20;;;;;;;;;;;17.50;84.10;;;;;;5089293;28;20019;-82
2022/06/15 07:36:47;;;;;;;;;;;17.60;84.20;;;;;;5083662;28;19932;-82
2022/06/15 07:39:15;;;;;;;;;;;17.60;84.20;;;;;;5084858;28;19924;-82
2022/06/15 07:41:42;;;;;;;;;;;17.60;84.20;;;;;;5082835;28;19946;-82
2022/06/15 07:44:13;;;;;;;;;;;17.70;84.40;;;;;;5085140;28;19931;-83
2022/06/15 07:46:40;;;;;;;;;;;17.70;84.40;;;;;;5085105;28;19924;-83
2022/06/15 07:51:53;;;;;;;;;;;17.70;84.40;;;;;;5083030;28;19924;-82
2022/06/15 07:54:22;;;;;;;;;;;17.80;84.60;;;;;;5081497;28;20449;-83
2022/06/15 07:56:50;;;;;;;;;;;17.80;84.50;;;;;;5082113;28;19924;-82
2022/06/15 07:59:17;;;;;;;;;;;17.80;84.50;;;;;;5084125;28;20351;-82
2022/06/15 08:01:45;;;;;;;;;;;17.90;84.60;;;;;;5069693;28;20310;-83
2022/06/15 08:04:12;;;;;;;;;;;17.90;84.60;;;;;;5059306;28;19932;-82
2022/06/15 08:06:41;;;;;;;;;;;17.90;84.60;;;;;;5084261;28;19924;-82
2022/06/15 08:09:09;;;;;;;;;;;17.90;84.60;;;;;;5081273;28;19932;-82
2022/06/15 08:11:36;;;;;;;;;;;17.90;84.60;;;;;;5081345;28;19978;-82
2022/06/15 08:14:04;;;;;;;;;;;17.90;84.60;;;;;;5081775;28;20007;-82
2022/06/15 08:16:31;;;;;;;;;;;17.90;84.60;;;;;;5062355;28;20364;-83
2022/06/15 08:19:01;;;;;;;;;;;17.90;84.60;;;;;;5079476;28;19946;-84
2022/06/15 08:21:32;;;;;;;;;;;18.00;84.90;;;;;;5083850;28;20014;-82
2022/06/15 08:24:00;;;;;;;;;;;18.00;84.80;;;;;;5074342;28;19924;-82
2022/06/15 08:26:30;;;;;;;;;;;18.00;85.00;;;;;;5067170;28;20641;-83
2022/06/15 08:28:58;;;;;;;;;;;18.00;84.90;;;;;;5062774;28;19924;-82
2022/06/15 08:31:25;;;;;;;;;;;18.00;85.10;;;;;;5082145;28;20024;-83
2022/06/15 08:33:54;;;;;;;;;;;18.10;85.10;;;;;;5076135;28;19939;-83
2022/06/15 08:36:21;;;;;;;;;;;18.10;85.90;;;;;;5085323;28;19924;-82
2022/06/15 08:38:48;;;;;;;;;;;18.10;85.30;;;;;;5088431;28;19932;-83
2022/06/15 08:41:21;;;;;;;;;;;18.10;85.30;;;;;;5085821;28;19924;-79
2022/06/15 08:43:57;;;;;;;;;;;18.20;86.20;;;;;;5065678;28;20250;-82
2022/06/15 08:46:27;;;;;;;;;;;18.20;85.60;;;;;;5085815;28;19944;-81
2022/06/15 08:49:03;;;;;;;;;;;18.20;85.60;;;;;;5065484;28;19932;-81
2022/06/15 08:51:34;;;;;;;;;;;18.20;85.70;;;;;;5082918;28;19930;-81
2022/06/15 08:54:04;;;;;;;;;;;18.20;85.70;;;;;;5086935;28;19950;-83
2022/06/15 08:56:34;;;;;;;;;;;18.30;85.80;;;;;;5070732;28;19954;-79
2022/06/15 08:59:06;;;;;;;;;;;18.30;85.90;;;;;;5082783;28;20410;-80
2022/06/15 09:01:35;;;;;;;;;;;18.30;85.90;;;;;;5084797;28;19924;-82
2022/06/15 09:04:11;;;;;;;;;;;18.30;86.10;;;;;;5086479;28;19925;-82
2022/06/15 09:06:46;;;;;;;;;;;18.40;86.40;;;;;;5070382;28;20314;-82
2022/06/15 09:09:19;;;;;;;;;;;18.40;86.40;;;;;;5073957;28;19931;-82
2022/06/15 09:11:52;;;;;;;;;;;18.40;86.90;;;;;;5073560;28;19928;-81
2022/06/15 09:14:26;;;;;;;;;;;18.40;87.40;;;;;;5068303;28;20402;-82
2022/06/15 09:16:56;;;;;;;;;;;18.50;87.10;;;;;;5081069;28;19939;-82
2022/06/15 09:19:25;;;;;;;;;;;18.50;86.80;;;;;;5077648;28;19924;-83
2022/06/15 09:21:56;;;;;;;;;;;18.50;87.10;;;;;;5087805;28;19928;-83
2022/06/15 09:24:25;;;;;;;;;;;18.50;87.20;;;;;;5102533;28;20014;-82
2022/06/15 09:26:53;;;;;;;;;;;18.50;87.30;;;;;;5087138;28;19930;-82
2022/06/15 09:29:23;;;;;;;;;;;18.60;87.00;;;;;;5090029;28;19928;-84
2022/06/15 09:31:52;;;;;;;;;;;18.60;87.20;;;;;;5087131;28;20340;-83
2022/06/15 09:34:20;;;;;;;;;;;18.60;87.60;;;;;;5065808;28;19951;-83
2022/06/15 09:36:48;;;;;;;;;;;18.60;87.30;;;;;;5069225;28;19942;-82
2022/06/15 09:39:15;;;;;;;;;;;18.70;87.70;;;;;;5088191;28;20374;-82
2022/06/15 09:41:48;;;;;;;;;;;18.70;88.00;;;;;;5071116;28;20348;-82
2022/06/15 09:44:18;;;;;;;;;;;18.70;88.10;;;;;;5094576;28;20006;-82
2022/06/15 09:46:53;;;;;;;;;;;18.70;88.20;;;;;;5083094;28;19981;-83
2022/06/15 09:49:31;;;;;;;;;;;18.70;87.60;;;;;;5086992;28;20305;-83
2022/06/15 09:52:03;;;;;;;;;;;18.80;87.80;;;;;;5080266;28;20025;-83
2022/06/15 09:54:35;;;;;;;;;;;18.80;88.10;;;;;;5088461;28;19985;-82
2022/06/15 09:57:02;;;;;;;;;;;18.80;88.00;;;;;;5081108;28;19924;-82
2022/06/15 09:59:33;;;;;;;;;;;18.80;88.20;;;;;;5065844;28;19950;-83
2022/06/15 10:02:04;;;;;;;;;;;18.80;88.10;;;;;;5067098;28;20445;-82
2022/06/15 10:04:32;;;;;;;;;;;18.90;87.90;;;;;;5089304;28;20368;-83
2022/06/15 10:07:01;;;;;;;;;;;18.90;88.00;;;;;;5066879;28;20359;-82
2022/06/15 10:09:29;;;;;;;;;;;18.90;88.10;;;;;;5084722;28;19924;-80
2022/06/15 10:12:55;;;;;;;;;;;19.30;88.30;;;;;;5085262;28;20333;-80
2022/06/15 10:14:44;;;;;;;;;;;18.90;88.10;;;;;;5085544;28;19932;-80
2022/06/15 10:17:21;;;;;;;;;;;19.00;88.20;;;;;;5066265;28;19955;-80
2022/06/15 10:19:51;;;;;;;;;;;19.00;88.30;;;;;;5067386;28;19931;-80
2022/06/15 10:22:21;;;;;;;;;;;19.00;88.10;;;;;;5070661;28;19928;-80
2022/06/15 10:24:49;;;;;;;;;;;19.00;88.30;;;;;;5089006;28;19930;-80
2022/06/15 10:27:21;;;;;;;;;;;19.10;88.40;;;;;;5093047;28;21890;-80
2022/06/15 10:29:57;;;;;;;;;;;19.10;88.30;;;;;;5093265;28;19947;-79
2022/06/15 10:32:26;;;;;;;;;;;19.10;88.40;;;;;;5089966;28;19924;-80
2022/06/15 10:34:55;;;;;;;;;;;19.20;88.60;;;;;;5072390;28;19939;-80
2022/06/15 10:37:25;;;;;;;;;;;19.20;88.60;;;;;;5089544;28;20298;-80
2022/06/15 10:39:57;;;;;;;;;;;19.20;88.80;;;;;;5068829;28;19939;-80
2022/06/15 10:42:26;;;;;;;;;;;19.20;88.70;;;;;;5086108;28;19924;-81
2022/06/15 10:44:54;;;;;;;;;;;19.30;88.60;;;;;;5073866;28;19990;-80
2022/06/15 10:47:23;;;;;;;;;;;19.30;89.70;;;;;;5086299;28;19924;-80
2022/06/15 10:49:55;;;;;;;;;;;19.30;89.20;;;;;;5063457;28;20626;-80
2022/06/15 10:52:24;;;;;;;;;;;19.40;89.40;;;;;;5083638;28;20011;-79
2022/06/15 11:03:18;;;;;;;;;;;19.50;90.20;;;;;;5070606;28;19951;-79
2022/06/15 11:05:46;;;;;;;;;;;19.60;90.20;;;;;;5082810;28;20009;-79
2022/06/15 11:08:15;;;;;;;;;;;19.60;90.10;;;;;;5063385;28;19929;-80
2022/06/15 11:10:44;;;;;;;;;;;19.50;99.90;;;;;;5084246;28;20213;-80
2022/06/15 11:13:22;;;;;;;;;;;19.60;96.10;;;;;;5085391;28;20013;-79
2022/06/15 11:18:37;;;;;;;;;;;19.70;90.90;;;;;;5087649;28;20018;-80
2022/06/15 11:21:04;;;;;;;;;;;;;;;;;;5083099;28;20033;-79
2022/06/15 11:23:39;;;;;;;;;;;19.80;90.00;;;;;;5088969;28;19939;-79
2022/06/15 11:28:54;;;;;;;;;;;19.90;90.30;;;;;;5065685;28;19928;-79
2022/06/15 11:31:23;;;;;;;;;;;19.90;90.40;;;;;;5085246;28;20321;-79
2022/06/15 11:33:51;;;;;;;;;;;20.00;90.40;;;;;;5083862;28;20417;-79
2022/06/15 11:36:25;;;;;;;;;;;20.10;90.30;;;;;;5089124;28;20388;-80
2022/06/15 11:38:56;;;;;;;;;;;20.10;90.30;;;;;;5069207;28;19928;-80
2022/06/15 11:41:25;;;;;;;;;;;20.10;90.30;;;;;;5093945;28;20416;-80
2022/06/15 11:43:52;;;;;;;;;;;20.20;90.30;;;;;;5090745;28;20420;-81
2022/06/15 11:46:29;;;;;;;;;;;20.20;90.60;;;;;;5088479;28;19943;-82
2022/06/15 11:49:02;;;;;;;;;;;20.20;90.10;;;;;;5064260;28;19954;-81
2022/06/15 11:51:37;;;;;;;;;;;20.30;90.20;;;;;;5088016;28;19938;-80
2022/06/15 11:54:13;;;;;;;;;;;20.40;90.20;;;;;;5089199;28;20019;-81
2022/06/15 11:56:44;;;;;;;;;;;20.40;90.20;;;;;;5065916;28;19931;-81
2022/06/15 11:59:18;;;;;;;;;;;20.40;90.00;;;;;;5092443;28;19931;-80
2022/06/15 12:01:51;;;;;;;;;;;20.40;90.10;;;;;;5070990;28;19954;-80
2022/06/15 12:04:32;;;;;;;;;;;20.50;90.00;;;;;;5086553;28;20310;-80
2022/06/15 12:07:03;;;;;;;;;;;20.50;90.00;;;;;;5083896;28;19923;-80
2022/06/15 12:09:38;;;;;;;;;;;20.50;90.10;;;;;;5093741;28;19924;-80
2022/06/15 12:14:57;;;;;;;;;;;20.70;90.20;;;;;;5071776;28;19928;-80
2022/06/15 12:17:27;;;;;;;;;;;20.70;90.10;;;;;;5090546;28;19930;-80
2022/06/15 12:19:58;;;;;;;;;;;20.80;90.20;;;;;;5082469;28;20397;-80
2022/06/15 12:22:27;;;;;;;;;;;20.90;90.10;;;;;;5084568;28;19939;-80
2022/06/15 12:24:59;;;;;;;;;;;20.90;90.10;;;;;;5086747;28;20378;-80
2022/06/15 12:27:32;;;;;;;;;;;21.00;90.30;;;;;;5079363;28;19985;-79
2022/06/15 12:30:03;;;;;;;;;;;21.00;90.30;;;;;;5089337;28;19931;-79
2022/06/15 12:32:36;;;;;;;;;;;21.20;90.20;;;;;;5073985;28;19955;-80
2022/06/15 12:35:13;;;;;;;;;;;21.20;90.10;;;;;;5077066;28;19935;-80
2022/06/15 12:37:43;;;;;;;;;;;21.20;90.00;;;;;;5072206;28;19975;-80
2022/06/15 12:40:16;;;;;;;;;;;21.30;90.10;;;;;;5079704;28;20412;-79
2022/06/15 12:42:45;;;;;;;;;;;21.30;90.20;;;;;;5092508;28;20303;-79
2022/06/15 12:45:16;;;;;;;;;;;21.40;90.10;;;;;;5072143;28;19924;-79
2022/06/15 12:47:45;;;;;;;;;;;21.40;90.10;;;;;;5065825;28;19966;-79
2022/06/15 12:50:25;;;;;;;;;;;21.60;90.00;;;;;;5091081;28;19924;-79
2022/06/15 12:52:56;;;;;;;;;;;21.70;90.20;;;;;;5095056;28;19978;-80
2022/06/15 12:55:29;;;;;;;;;;;21.70;90.20;;;;;;5091609;28;19928;-80
2022/06/15 12:57:58;;;;;;;;;;;21.80;90.20;;;;;;5085244;28;19928;-79
2022/06/15 13:00:30;;;;;;;;;;;21.80;90.10;;;;;;5088596;28;19934;-78
2022/06/15 13:03:01;;;;;;;;;;;21.90;90.10;;;;;;5080294;28;19954;-78
2022/06/15 13:05:31;;;;;;;;;;;22.00;90.30;;;;;;5085461;28;19981;-78
2022/06/15 13:08:18;;;;;;;;;;;22.00;90.00;;;;;;5084370;28;20014;-78
2022/06/15 13:11:01;;;;;;;;;;;22.10;90.10;;;;;;5084558;28;20331;-77
2022/06/15 13:13:29;;;;;;;;;;;22.20;90.20;;;;;;5086800;28;19928;-78
2022/06/15 13:15:59;;;;;;;;;;;22.30;90.20;;;;;;5083023;28;20001;-77
2022/06/15 13:18:39;;;;;;;;;;;22.30;90.20;;;;;;5065897;28;19934;-78
2022/06/15 13:21:06;;;;;;;;;;;22.40;90.20;;;;;;5084801;28;20003;-77
2022/06/15 13:23:39;;;;;;;;;;;22.40;90.10;;;;;;5083747;28;19924;-77
2022/06/15 13:26:09;;;;;;;;;;;22.50;90.00;;;;;;5085385;28;19959;-80
2022/06/15 13:28:38;;;;;;;;;;;22.50;90.00;;;;;;5086675;28;20632;-77
2022/06/15 13:31:06;;;;;;;;;;;22.60;89.90;;;;;;5080235;28;19924;-77
2022/06/15 13:33:51;;;;;;;;;;;22.60;90.00;;;;;;5087741;28;20006;-77
2022/06/15 13:36:20;;;;;;;;;;;22.70;89.90;;;;;;5087310;28;20001;-78
2022/06/15 13:38:49;;;;;;;;;;;22.70;90.00;;;;;;5070272;28;19928;-78
2022/06/15 13:41:23;;;;;;;;;;;22.80;90.10;;;;;;5092008;28;19932;-80
2022/06/15 13:44:12;;;;;;;;;;;22.90;90.00;;;;;;5093954;28;19928;-82
2022/06/15 13:46:44;;;;;;;;;;;22.90;89.90;;;;;;5087285;28;20557;-81
2022/06/15 13:49:14;;;;;;;;;;;23.00;90.00;;;;;;5072336;28;19939;-77
2022/06/15 13:51:44;;;;;;;;;;;23.20;88.80;;;;;;5089008;28;19948;-78
2022/06/15 13:54:17;;;;;;;;;;;23.20;89.30;;;;;;5092228;28;19938;-77
2022/06/15 13:56:47;;;;;;;;;;;23.30;88.70;;;;;;5072679;28;19939;-77
2022/06/15 13:59:22;;;;;;;;;;;23.40;89.60;;;;;;5072710;28;20325;-78
2022/06/15 14:02:02;;;;;;;;;;;23.40;87.50;;;;;;5094558;28;20389;-77
2022/06/15 14:04:43;;;;;;;;;;;23.50;87.30;;;;;;5073836;28;19932;-78
2022/06/15 14:07:27;;;;;;;;;;;23.60;83.70;;;;;;5079854;28;19924;-78
2022/06/15 14:10:00;;;;;;;;;;;23.70;85.60;;;;;;5073966;28;19924;-77
2022/06/15 14:12:36;;;;;;;;;;;23.70;85.20;;;;;;5094780;28;19936;-78
2022/06/15 14:15:18;;;;;;;;;;;23.80;84.60;;;;;;5087845;28;19985;-76
2022/06/15 14:18:15;;;;;;;;;;;23.90;81.10;;;;;;5078507;28;20389;-78
2022/06/15 14:20:45;;;;;;;;;;;23.90;81.50;;;;;;5090868;28;19928;-78
2022/06/15 14:23:12;;;;;;;;;;;24.00;83.20;;;;;;5093676;28;20290;-78
2022/06/15 14:25:41;;;;;;;;;;;24.00;82.50;;;;;;5071569;28;20395;-78
2022/06/15 14:28:11;;;;;;;;;;;24.10;79.00;;;;;;5096134;28;19938;-78
2022/06/15 14:30:40;;;;;;;;;;;24.20;73.90;;;;;;5074643;28;20385;-79
2022/06/15 14:33:15;;;;;;;;;;;24.20;72.50;;;;;;5093007;28;19982;-78
2022/06/15 14:35:42;;;;;;;;;;;24.30;70.40;;;;;;5092017;28;20419;-78
2022/06/15 14:38:15;;;;;;;;;;;24.40;71.30;;;;;;5094218;28;19978;-79
2022/06/15 14:40:43;;;;;;;;;;;24.50;71.00;;;;;;5096289;28;20372;-79
2022/06/15 14:43:13;;;;;;;;;;;24.50;72.00;;;;;;5090245;28;19963;-81
2022/06/15 14:45:41;;;;;;;;;;;24.60;73.70;;;;;;5088523;28;20003;-79
2022/06/15 14:48:12;;;;;;;;;;;24.60;72.40;;;;;;5073809;28;19932;-79
2022/06/15 14:50:41;;;;;;;;;;;24.70;71.10;;;;;;5093568;28;19928;-80
2022/06/15 14:53:09;;;;;;;;;;;24.80;71.00;;;;;;5092107;28;19930;-81
2022/06/15 14:55:37;;;;;;;;;;;24.90;72.00;;;;;;5091468;28;19924;-79
2022/06/15 14:58:09;;;;;;;;;;;24.90;70.60;;;;;;5090936;28;19978;-79
2022/06/15 15:00:37;;;;;;;;;;;24.90;72.50;;;;;;5094071;28;20029;-77